Johann Essberger — CQKG — position and weather

sailwx.info

Track history (hours):
 
Tides and Currents Weather Stations Pressure Air Temp Water Temp Dewpoint Dewpoint Depression Visibility Wind Speed Wind Dir Waves Ship Positions

Johann Essberger

Last reported at 2016-Aug-26 07:29 UTC. Time now 2016-Aug-26 08:30 UTC.
Position N 53°39' E 009°31'.

Length 98 m; draft 7.4 m.

Type: Ship (hazmat cat B). MMSI: 255804460.

Date/timePositionNaut miles runAvg speedWind from/ knotsBaromVisibWave heightAir tempDewpointWater temp
2016-Aug-26 07:29N 53°39' E 009°31'0 0.0
2016-Aug-26 06:29N 53°39' E 009°31'0 0.0
2016-Aug-26 04:29N 53°39' E 009°31'0 0.0
2016-Aug-26 03:29N 53°39' E 009°31'0 0.0
2016-Aug-26 02:29N 53°39' E 009°31'0 0.0
2016-Aug-26 01:29N 53°39' E 009°31'0 0.0
2016-Aug-26 00:29N 53°39' E 009°31'0 0.0
2016-Aug-25 23:29N 53°39' E 009°31'0 0.2
2016-Aug-25 22:33N 53°39' E 009°31'6 5.5
2016-Aug-25 21:34N 53°44' E 009°27'1110.7
2016-Aug-25 20:34N 53°52' E 009°16'1111.2
2016-Aug-25 19:34N 53°51' E 008°57'1111.2
2016-Aug-25 18:33N 53°56' E 008°40'1212.0
2016-Aug-25 17:33N 53°59' E 008°20'1212.2
2016-Aug-25 16:33N 53°58' E 007°60'1413.5
2016-Aug-25 15:33N 53°55' E 007°37'1413.9
2016-Aug-25 14:32N 53°52' E 007°14'1414.1
2016-Aug-25 13:33N 53°48' E 006°51'1414.3
2016-Aug-25 12:33N 53°45' E 006°28'1414.2
2016-Aug-25 11:33N 53°41' E 006°05'1414.1
2016-Aug-25 10:34N 53°37' E 005°42'1414.0
2016-Aug-25 09:34N 53°32' E 005°20'1413.8
2016-Aug-25 08:33N 53°27' E 004°58'1312.8
2016-Aug-25 07:33N 53°20' E 004°40'1313.2
2016-Aug-25 06:34N 53°08' E 004°31'2512.3
2016-Aug-25 04:34N 52°47' E 004°10'1212.0
2016-Aug-25 03:34N 52°38' E 003°57'1211.8
2016-Aug-25 02:33N 52°29' E 003°43'1111.1
2016-Aug-25 01:31N 52°18' E 003°37'1111.4
2016-Aug-25 00:33N 52°09' E 003°29'1111.6
2016-Aug-24 23:33N 51°58' E 003°23'1212.1
2016-Aug-24 22:33N 51°47' E 003°15'1211.9
2016-Aug-24 21:33N 51°36' E 003°23'1312.6
2016-Aug-24 20:33N 51°26' E 003°35'1111.4
2016-Aug-24 19:34N 51°21' E 003°52'8 7.8
2016-Aug-24 18:33N 51°22' E 004°04'8 8.1
2016-Aug-24 17:33N 51°20' E 004°16'2 0.4
2016-Aug-24 13:05N 51°18' E 004°17'0 0.0
2016-Aug-23 23:17N 51°18' E 004°17'2 2.6
2016-Aug-23 22:33N 51°20' E 004°16'1 1.0
2016-Aug-23 21:33N 51°21' E 004°17'1 0.0
2016-Aug-22 22:17N 51°22' E 004°17'1 1.4
2016-Aug-22 21:33N 51°21' E 004°17'0 0.0
2016-Aug-22 20:34N 51°21' E 004°17'5 5.1
2016-Aug-22 19:34N 51°24' E 004°11'8 8.0
2016-Aug-22 18:33N 51°25' E 003°58'10 9.6
2016-Aug-22 17:33N 51°23' E 003°43'1111.4
2016-Aug-22 16:34N 51°30' E 003°28'1212.2
2016-Aug-22 15:33N 51°40' E 003°18'6 1.0
2016-Aug-22 09:33N 51°46' E 003°17'1212.5
2016-Aug-22 08:33N 51°47' E 002°57'1010.2
2016-Aug-22 07:32N 51°56' E 002°48'30 9.9
2016-Aug-22 04:32N 52°03' E 003°35'1111.2
2016-Aug-22 03:33N 52°03' E 003°53'1111.1
2016-Aug-22 02:33N 51°57' E 004°09'2 1.7
2016-Aug-22 01:19N 51°56' E 004°11'0 0.0
2016-Aug-22 00:31N 51°56' E 004°11'0 0.0
2016-Aug-21 23:31N 51°56' E 004°11'0 0.0
2016-Aug-21 22:31N 51°56' E 004°11'0 0.0
2016-Aug-21 21:25N 51°56' E 004°11'0 0.0
2016-Aug-21 20:25N 51°56' E 004°11'0 0.0
2016-Aug-21 19:31N 51°56' E 004°11'0 0.0
2016-Aug-21 18:31N 51°56' E 004°11'0 0.0
2016-Aug-21 17:16N 51°56' E 004°11'0 0.0
2016-Aug-21 16:19N 51°56' E 004°11'0 0.0
2016-Aug-21 15:25N 51°56' E 004°11'0 0.0
2016-Aug-21 14:31N 51°56' E 004°11'0 0.0
2016-Aug-21 13:25N 51°56' E 004°11'0 0.0
2016-Aug-21 12:25N 51°56' E 004°11'0 0.0
2016-Aug-21 11:31N 51°56' E 004°11'0 0.0
2016-Aug-21 10:13N 51°56' E 004°11'0 0.0
2016-Aug-21 08:31N 51°56' E 004°11'0 0.0
2016-Aug-21 07:13N 51°56' E 004°11'0 0.0
2016-Aug-21 06:07N 51°56' E 004°11'0 0.0
2016-Aug-21 05:25N 51°56' E 004°11'0 0.0
2016-Aug-21 04:31N 51°56' E 004°11'0 0.0
2016-Aug-21 03:25N 51°56' E 004°11'0 0.0
2016-Aug-21 02:13N 51°56' E 004°11'0 0.0
2016-Aug-21 01:33N 51°56' E 004°11'5 4.8
2016-Aug-21 00:34N 51°59' E 004°05'9 9.3
2016-Aug-20 23:34N 51°54' E 004°17'0 0.0
2016-Aug-20 12:11N 51°54' E 004°17'0 0.3
2016-Aug-20 11:34N 51°53' E 004°17'3 3.2
2016-Aug-20 10:34N 51°56' E 004°14'1111.0
2016-Aug-20 09:34N 51°60' E 003°57'1110.9
2016-Aug-20 08:32N 52°03' E 003°40'7811.2
2016-Aug-20 01:33N 52°47' E 001°54'1111.1
2016-Aug-20 00:34N 52°54' E 001°39'1111.4
2016-Aug-19 23:33N 53°03' E 001°29'1312.5
2016-Aug-19 22:32N 53°14' E 001°16'5513.0
2016-Aug-19 18:18N 54°00' E 000°26'1114.3
2016-Aug-19 17:33N 54°09' E 000°15'1414.4
2016-Aug-19 16:33N 54°19' W 000°02'1413.7
2016-Aug-19 15:34N 54°28' W 000°19'2813.1
2016-Aug-19 13:25N 54°40' W 001°04'3 0.1
2016-Aug-18 14:26N 54°43' W 001°01'0 0.0
2016-Aug-18 13:17N 54°43' W 001°01'0 0.0
2016-Aug-18 12:29N 54°43' W 001°01'0 0.0
2016-Aug-18 11:20N 54°43' W 001°01'0 0.0
2016-Aug-18 10:32N 54°43' W 001°01'0 0.0
2016-Aug-18 09:32N 54°43' W 001°01'3 3.3
2016-Aug-18 08:34N 54°44' W 000°56'7 7.1
2016-Aug-18 07:34N 54°49' W 000°47'9 8.7
2016-Aug-18 06:32N 54°54' W 000°35'6 6.6
2016-Aug-18 05:33N 55°01' W 000°36'10 7.1
2016-Aug-18 04:12N 54°55' W 000°49'710.4
2016-Aug-18 03:29N 54°49' W 000°56'9 0.5
2016-Aug-17 09:33N 54°40' W 001°04'2 2.0
2016-Aug-17 08:26N 54°42' W 001°01'0 0.2
2016-Aug-17 07:33N 54°42' W 001°01'0 0.3
2016-Aug-17 06:33N 54°42' W 001°01'0 0.1
2016-Aug-17 05:30N 54°42' W 001°01'4 0.2
2016-Aug-16 09:19N 54°40' W 001°07'4 5.5
2016-Aug-16 08:30N 54°42' W 001°00'0 0.0
2016-Aug-16 07:33N 54°42' W 001°00'  
Track history (hours):
 
Tides and Currents Weather Stations Pressure Air Temp Water Temp Dewpoint Dewpoint Depression Visibility Wind Speed Wind Dir Waves Ship Positions

Johann Essberger

Last reported at 2016-Aug-26 07:29 UTC. Time now 2016-Aug-26 08:30 UTC.
Position N 53°39' E 009°31'.

Length 98 m; draft 7.4 m.

Type: Ship (hazmat cat B). MMSI: 255804460.

Date/timePositionNaut miles runAvg speedWind from/ knotsBaromVisibWave heightAir tempDewpointWater temp
2016-Aug-26 07:29N 53°39' E 009°31'0 0.0
2016-Aug-26 06:29N 53°39' E 009°31'0 0.0
2016-Aug-26 04:29N 53°39' E 009°31'0 0.0
2016-Aug-26 03:29N 53°39' E 009°31'0 0.0
2016-Aug-26 02:29N 53°39' E 009°31'0 0.0
2016-Aug-26 01:29N 53°39' E 009°31'0 0.0
2016-Aug-26 00:29N 53°39' E 009°31'0 0.0
2016-Aug-25 23:29N 53°39' E 009°31'0 0.2
2016-Aug-25 22:33N 53°39' E 009°31'6 5.5
2016-Aug-25 21:34N 53°44' E 009°27'1110.7
2016-Aug-25 20:34N 53°52' E 009°16'1111.2
2016-Aug-25 19:34N 53°51' E 008°57'1111.2
2016-Aug-25 18:33N 53°56' E 008°40'1212.0
2016-Aug-25 17:33N 53°59' E 008°20'1212.2
2016-Aug-25 16:33N 53°58' E 007°60'1413.5
2016-Aug-25 15:33N 53°55' E 007°37'1413.9
2016-Aug-25 14:32N 53°52' E 007°14'1414.1
2016-Aug-25 13:33N 53°48' E 006°51'1414.3
2016-Aug-25 12:33N 53°45' E 006°28'1414.2
2016-Aug-25 11:33N 53°41' E 006°05'1414.1
2016-Aug-25 10:34N 53°37' E 005°42'1414.0
2016-Aug-25 09:34N 53°32' E 005°20'1413.8
2016-Aug-25 08:33N 53°27' E 004°58'1312.8
2016-Aug-25 07:33N 53°20' E 004°40'1313.2
2016-Aug-25 06:34N 53°08' E 004°31'2512.3
2016-Aug-25 04:34N 52°47' E 004°10'1212.0
2016-Aug-25 03:34N 52°38' E 003°57'1211.8
2016-Aug-25 02:33N 52°29' E 003°43'1111.1
2016-Aug-25 01:31N 52°18' E 003°37'1111.4
2016-Aug-25 00:33N 52°09' E 003°29'1111.6
2016-Aug-24 23:33N 51°58' E 003°23'1212.1
2016-Aug-24 22:33N 51°47' E 003°15'1211.9
2016-Aug-24 21:33N 51°36' E 003°23'1312.6
2016-Aug-24 20:33N 51°26' E 003°35'1111.4
2016-Aug-24 19:34N 51°21' E 003°52'8 7.8
2016-Aug-24 18:33N 51°22' E 004°04'8 8.1
2016-Aug-24 17:33N 51°20' E 004°16'2 0.4
2016-Aug-24 13:05N 51°18' E 004°17'0 0.0
2016-Aug-23 23:17N 51°18' E 004°17'2 2.6
2016-Aug-23 22:33N 51°20' E 004°16'1 1.0
2016-Aug-23 21:33N 51°21' E 004°17'1 0.0
2016-Aug-22 22:17N 51°22' E 004°17'1 1.4
2016-Aug-22 21:33N 51°21' E 004°17'0 0.0
2016-Aug-22 20:34N 51°21' E 004°17'5 5.1
2016-Aug-22 19:34N 51°24' E 004°11'8 8.0
2016-Aug-22 18:33N 51°25' E 003°58'10 9.6
2016-Aug-22 17:33N 51°23' E 003°43'1111.4
2016-Aug-22 16:34N 51°30' E 003°28'1212.2
2016-Aug-22 15:33N 51°40' E 003°18'6 1.0
2016-Aug-22 09:33N 51°46' E 003°17'1212.5
2016-Aug-22 08:33N 51°47' E 002°57'1010.2
2016-Aug-22 07:32N 51°56' E 002°48'30 9.9
2016-Aug-22 04:32N 52°03' E 003°35'1111.2
2016-Aug-22 03:33N 52°03' E 003°53'1111.1
2016-Aug-22 02:33N 51°57' E 004°09'2 1.7
2016-Aug-22 01:19N 51°56' E 004°11'0 0.0
2016-Aug-22 00:31N 51°56' E 004°11'0 0.0
2016-Aug-21 23:31N 51°56' E 004°11'0 0.0
2016-Aug-21 22:31N 51°56' E 004°11'0 0.0
2016-Aug-21 21:25N 51°56' E 004°11'0 0.0
2016-Aug-21 20:25N 51°56' E 004°11'0 0.0
2016-Aug-21 19:31N 51°56' E 004°11'0 0.0
2016-Aug-21 18:31N 51°56' E 004°11'0 0.0
2016-Aug-21 17:16N 51°56' E 004°11'0 0.0
2016-Aug-21 16:19N 51°56' E 004°11'0 0.0
2016-Aug-21 15:25N 51°56' E 004°11'0 0.0
2016-Aug-21 14:31N 51°56' E 004°11'0 0.0
2016-Aug-21 13:25N 51°56' E 004°11'0 0.0
2016-Aug-21 12:25N 51°56' E 004°11'0 0.0
2016-Aug-21 11:31N 51°56' E 004°11'0 0.0
2016-Aug-21 10:13N 51°56' E 004°11'0 0.0
2016-Aug-21 08:31N 51°56' E 004°11'0 0.0
2016-Aug-21 07:13N 51°56' E 004°11'0 0.0
2016-Aug-21 06:07N 51°56' E 004°11'0 0.0
2016-Aug-21 05:25N 51°56' E 004°11'0 0.0
2016-Aug-21 04:31N 51°56' E 004°11'0 0.0
2016-Aug-21 03:25N 51°56' E 004°11'0 0.0
2016-Aug-21 02:13N 51°56' E 004°11'0 0.0
2016-Aug-21 01:33N 51°56' E 004°11'5 4.8
2016-Aug-21 00:34N 51°59' E 004°05'9 9.3
2016-Aug-20 23:34N 51°54' E 004°17'0 0.0
2016-Aug-20 12:11N 51°54' E 004°17'0 0.3
2016-Aug-20 11:34N 51°53' E 004°17'3 3.2
2016-Aug-20 10:34N 51°56' E 004°14'1111.0
2016-Aug-20 09:34N 51°60' E 003°57'1110.9
2016-Aug-20 08:32N 52°03' E 003°40'7811.2
2016-Aug-20 01:33N 52°47' E 001°54'1111.1
2016-Aug-20 00:34N 52°54' E 001°39'1111.4
2016-Aug-19 23:33N 53°03' E 001°29'1312.5
2016-Aug-19 22:32N 53°14' E 001°16'5513.0
2016-Aug-19 18:18N 54°00' E 000°26'1114.3
2016-Aug-19 17:33N 54°09' E 000°15'1414.4
2016-Aug-19 16:33N 54°19' W 000°02'1413.7
2016-Aug-19 15:34N 54°28' W 000°19'2813.1
2016-Aug-19 13:25N 54°40' W 001°04'3 0.1
2016-Aug-18 14:26N 54°43' W 001°01'0 0.0
2016-Aug-18 13:17N 54°43' W 001°01'0 0.0
2016-Aug-18 12:29N 54°43' W 001°01'0 0.0
2016-Aug-18 11:20N 54°43' W 001°01'0 0.0
2016-Aug-18 10:32N 54°43' W 001°01'0 0.0
2016-Aug-18 09:32N 54°43' W 001°01'3 3.3
2016-Aug-18 08:34N 54°44' W 000°56'7 7.1
2016-Aug-18 07:34N 54°49' W 000°47'9 8.7
2016-Aug-18 06:32N 54°54' W 000°35'6 6.6
2016-Aug-18 05:33N 55°01' W 000°36'10 7.1
2016-Aug-18 04:12N 54°55' W 000°49'710.4
2016-Aug-18 03:29N 54°49' W 000°56'9 0.5
2016-Aug-17 09:33N 54°40' W 001°04'2 2.0
2016-Aug-17 08:26N 54°42' W 001°01'0 0.2
2016-Aug-17 07:33N 54°42' W 001°01'0 0.3
2016-Aug-17 06:33N 54°42' W 001°01'0 0.1
2016-Aug-17 05:30N 54°42' W 001°01'4 0.2
2016-Aug-16 09:19N 54°40' W 001°07'4 5.5
2016-Aug-16 08:30N 54°42' W 001°00'0 0.0
2016-Aug-16 07:33N 54°42' W 001°00'  

Dump ship's entire track history